sensor_id;sensor_type;location;lat;lon;timestamp;P1;durP1;ratioP1;P2;durP2;ratioP2
14143;SDS011;7152;48.348;10.980;2022-09-17T00:01:56;2.93;;;2.30;;
14143;SDS011;7152;48.348;10.980;2022-09-17T00:04:22;2.50;;;2.00;;
14143;SDS011;7152;48.348;10.980;2022-09-17T00:06:48;2.40;;;2.07;;
14143;SDS011;7152;48.348;10.980;2022-09-17T00:09:14;2.20;;;1.83;;
14143;SDS011;7152;48.348;10.980;2022-09-17T00:11:40;3.70;;;2.03;;
14143;SDS011;7152;48.348;10.980;2022-09-17T00:14:08;3.03;;;2.20;;
14143;SDS011;7152;48.348;10.980;2022-09-17T00:16:39;3.07;;;2.30;;
14143;SDS011;7152;48.348;10.980;2022-09-17T00:19:09;2.20;;;2.00;;
14143;SDS011;7152;48.348;10.980;2022-09-17T00:21:39;2.23;;;1.97;;
14143;SDS011;7152;48.348;10.980;2022-09-17T00:24:05;2.53;;;2.20;;
14143;SDS011;7152;48.348;10.980;2022-09-17T00:26:32;4.80;;;2.37;;
14143;SDS011;7152;48.348;10.980;2022-09-17T00:28:59;2.30;;;2.17;;
14143;SDS011;7152;48.348;10.980;2022-09-17T00:31:26;4.80;;;2.30;;
14143;SDS011;7152;48.348;10.980;2022-09-17T00:33:53;3.10;;;2.10;;
14143;SDS011;7152;48.348;10.980;2022-09-17T00:36:19;3.00;;;2.60;;
14143;SDS011;7152;48.348;10.980;2022-09-17T00:38:56;2.63;;;2.20;;
14143;SDS011;7152;48.348;10.980;2022-09-17T00:41:23;3.57;;;2.23;;
14143;SDS011;7152;48.348;10.980;2022-09-17T00:43:52;2.17;;;1.90;;
14143;SDS011;7152;48.348;10.980;2022-09-17T00:49:00;2.80;;;2.27;;
14143;SDS011;7152;48.348;10.980;2022-09-17T00:51:34;2.67;;;2.13;;
14143;SDS011;7152;48.348;10.980;2022-09-17T00:54:03;1.97;;;1.80;;
14143;SDS011;7152;48.348;10.980;2022-09-17T00:56:32;2.20;;;2.00;;
14143;SDS011;7152;48.348;10.980;2022-09-17T00:59:00;2.40;;;1.90;;
14143;SDS011;7152;48.348;10.980;2022-09-17T01:01:27;2.27;;;1.80;;
14143;SDS011;7152;48.348;10.980;2022-09-17T01:03:54;3.03;;;2.13;;
14143;SDS011;7152;48.348;10.980;2022-09-17T01:06:22;2.43;;;1.70;;
14143;SDS011;7152;48.348;10.980;2022-09-17T01:14:59;3.13;;;1.90;;
14143;SDS011;7152;48.348;10.980;2022-09-17T01:17:38;1.90;;;1.80;;
14143;SDS011;7152;48.348;10.980;2022-09-17T01:20:52;2.20;;;2.00;;
14143;SDS011;7152;48.348;10.980;2022-09-17T01:23:48;2.17;;;1.83;;
14143;SDS011;7152;48.348;10.980;2022-09-17T01:32:08;2.90;;;1.83;;
14143;SDS011;7152;48.348;10.980;2022-09-17T01:35:03;3.17;;;2.10;;
14143;SDS011;7152;48.348;10.980;2022-09-17T01:40:22;2.93;;;2.23;;
14143;SDS011;7152;48.348;10.980;2022-09-17T01:43:06;2.80;;;1.83;;
14143;SDS011;7152;48.348;10.980;2022-09-17T01:45:38;3.93;;;1.83;;
14143;SDS011;7152;48.348;10.980;2022-09-17T01:48:30;3.47;;;1.70;;
14143;SDS011;7152;48.348;10.980;2022-09-17T01:51:09;2.93;;;1.70;;
14143;SDS011;7152;48.348;10.980;2022-09-17T01:53:43;3.30;;;2.13;;
14143;SDS011;7152;48.348;10.980;2022-09-17T01:56:16;3.30;;;1.93;;
14143;SDS011;7152;48.348;10.980;2022-09-17T01:58:51;2.03;;;1.60;;
14143;SDS011;7152;48.348;10.980;2022-09-17T02:01:27;2.47;;;1.77;;
14143;SDS011;7152;48.348;10.980;2022-09-17T02:03:58;1.90;;;1.50;;
14143;SDS011;7152;48.348;10.980;2022-09-17T02:06:35;2.00;;;1.87;;
14143;SDS011;7152;48.348;10.980;2022-09-17T02:09:12;2.70;;;1.60;;
14143;SDS011;7152;48.348;10.980;2022-09-17T02:11:47;1.70;;;1.47;;
14143;SDS011;7152;48.348;10.980;2022-09-17T02:14:24;1.60;;;1.50;;
14143;SDS011;7152;48.348;10.980;2022-09-17T02:17:02;3.00;;;1.70;;
14143;SDS011;7152;48.348;10.980;2022-09-17T02:19:35;1.97;;;1.60;;
14143;SDS011;7152;48.348;10.980;2022-09-17T02:22:05;2.50;;;1.60;;
14143;SDS011;7152;48.348;10.980;2022-09-17T02:30:30;2.33;;;1.60;;
14143;SDS011;7152;48.348;10.980;2022-09-17T02:32:56;2.13;;;1.90;;
14143;SDS011;7152;48.348;10.980;2022-09-17T02:35:22;2.60;;;1.97;;
14143;SDS011;7152;48.348;10.980;2022-09-17T02:37:48;2.20;;;1.80;;
14143;SDS011;7152;48.348;10.980;2022-09-17T02:40:15;2.47;;;1.70;;
14143;SDS011;7152;48.348;10.980;2022-09-17T02:54:25;2.23;;;1.40;;
14143;SDS011;7152;48.348;10.980;2022-09-17T03:00:07;1.83;;;1.73;;
14143;SDS011;7152;48.348;10.980;2022-09-17T03:03:16;1.57;;;1.20;;
14143;SDS011;7152;48.348;10.980;2022-09-17T03:05:22;1.80;;;1.50;;
14143;SDS011;7152;48.348;10.980;2022-09-17T03:07:49;3.07;;;1.80;;
14143;SDS011;7152;48.348;10.980;2022-09-17T03:10:15;1.80;;;1.70;;
14143;SDS011;7152;48.348;10.980;2022-09-17T03:12:42;4.00;;;1.70;;
14143;SDS011;7152;48.348;10.980;2022-09-17T03:15:07;2.47;;;1.60;;
14143;SDS011;7152;48.348;10.980;2022-09-17T03:17:34;2.47;;;1.80;;
14143;SDS011;7152;48.348;10.980;2022-09-17T03:20:00;2.63;;;1.80;;
14143;SDS011;7152;48.348;10.980;2022-09-17T03:22:26;2.70;;;1.97;;
14143;SDS011;7152;48.348;10.980;2022-09-17T03:24:51;2.43;;;1.87;;
14143;SDS011;7152;48.348;10.980;2022-09-17T03:27:17;1.57;;;1.47;;
14143;SDS011;7152;48.348;10.980;2022-09-17T03:29:43;1.70;;;1.60;;
14143;SDS011;7152;48.348;10.980;2022-09-17T03:32:08;3.43;;;1.60;;
14143;SDS011;7152;48.348;10.980;2022-09-17T03:34:34;1.60;;;1.50;;
14143;SDS011;7152;48.348;10.980;2022-09-17T03:37:00;2.33;;;1.60;;
14143;SDS011;7152;48.348;10.980;2022-09-17T03:39:27;2.73;;;1.63;;
14143;SDS011;7152;48.348;10.980;2022-09-17T03:41:53;2.00;;;1.80;;
14143;SDS011;7152;48.348;10.980;2022-09-17T03:44:19;2.17;;;1.50;;
14143;SDS011;7152;48.348;10.980;2022-09-17T03:46:46;3.30;;;1.70;;
14143;SDS011;7152;48.348;10.980;2022-09-17T03:49:12;3.33;;;1.60;;
14143;SDS011;7152;48.348;10.980;2022-09-17T03:51:38;3.70;;;1.70;;
14143;SDS011;7152;48.348;10.980;2022-09-17T03:54:03;2.20;;;2.00;;
14143;SDS011;7152;48.348;10.980;2022-09-17T03:56:29;2.80;;;2.37;;
14143;SDS011;7152;48.348;10.980;2022-09-17T03:58:58;1.80;;;1.70;;
14143;SDS011;7152;48.348;10.980;2022-09-17T04:01:25;3.53;;;1.90;;
14143;SDS011;7152;48.348;10.980;2022-09-17T04:03:51;2.97;;;2.10;;
14143;SDS011;7152;48.348;10.980;2022-09-17T04:06:17;2.33;;;2.13;;
14143;SDS011;7152;48.348;10.980;2022-09-17T04:08:43;2.17;;;2.07;;
14143;SDS011;7152;48.348;10.980;2022-09-17T04:11:09;2.77;;;2.00;;
14143;SDS011;7152;48.348;10.980;2022-09-17T04:13:34;2.80;;;1.87;;
14143;SDS011;7152;48.348;10.980;2022-09-17T04:16:01;2.97;;;1.60;;
14143;SDS011;7152;48.348;10.980;2022-09-17T04:18:27;2.83;;;1.63;;
14143;SDS011;7152;48.348;10.980;2022-09-17T04:20:52;3.00;;;1.90;;
14143;SDS011;7152;48.348;10.980;2022-09-17T04:23:18;3.20;;;1.80;;
14143;SDS011;7152;48.348;10.980;2022-09-17T04:25:44;4.87;;;2.20;;
14143;SDS011;7152;48.348;10.980;2022-09-17T04:28:09;3.93;;;2.13;;
14143;SDS011;7152;48.348;10.980;2022-09-17T04:30:35;1.87;;;1.77;;
14143;SDS011;7152;48.348;10.980;2022-09-17T04:33:02;2.83;;;1.87;;
14143;SDS011;7152;48.348;10.980;2022-09-17T04:35:28;4.37;;;2.23;;
14143;SDS011;7152;48.348;10.980;2022-09-17T04:37:54;2.77;;;1.90;;
14143;SDS011;7152;48.348;10.980;2022-09-17T04:40:21;2.87;;;1.90;;
14143;SDS011;7152;48.348;10.980;2022-09-17T04:42:47;3.37;;;1.97;;
14143;SDS011;7152;48.348;10.980;2022-09-17T04:45:15;4.40;;;2.27;;
14143;SDS011;7152;48.348;10.980;2022-09-17T04:47:41;4.50;;;2.13;;
14143;SDS011;7152;48.348;10.980;2022-09-17T04:50:08;2.47;;;2.27;;
14143;SDS011;7152;48.348;10.980;2022-09-17T04:52:34;3.27;;;2.07;;
14143;SDS011;7152;48.348;10.980;2022-09-17T04:54:59;4.13;;;2.50;;
14143;SDS011;7152;48.348;10.980;2022-09-17T04:57:25;3.33;;;2.47;;
14143;SDS011;7152;48.348;10.980;2022-09-17T04:59:51;2.87;;;2.40;;
14143;SDS011;7152;48.348;10.980;2022-09-17T05:02:17;5.00;;;2.40;;
14143;SDS011;7152;48.348;10.980;2022-09-17T05:04:43;3.93;;;2.33;;
14143;SDS011;7152;48.348;10.980;2022-09-17T05:07:09;5.60;;;2.47;;
14143;SDS011;7152;48.348;10.980;2022-09-17T05:09:34;2.60;;;2.20;;
14143;SDS011;7152;48.348;10.980;2022-09-17T05:12:00;4.53;;;2.37;;
14143;SDS011;7152;48.348;10.980;2022-09-17T05:14:26;3.43;;;2.50;;
14143;SDS011;7152;48.348;10.980;2022-09-17T05:16:52;5.30;;;2.77;;
14143;SDS011;7152;48.348;10.980;2022-09-17T05:19:17;3.13;;;2.23;;
14143;SDS011;7152;48.348;10.980;2022-09-17T05:21:43;4.00;;;2.33;;
14143;SDS011;7152;48.348;10.980;2022-09-17T05:24:08;5.10;;;2.33;;
14143;SDS011;7152;48.348;10.980;2022-09-17T05:26:34;4.00;;;2.77;;
14143;SDS011;7152;48.348;10.980;2022-09-17T05:28:59;3.93;;;2.50;;
14143;SDS011;7152;48.348;10.980;2022-09-17T05:31:25;3.67;;;2.40;;
14143;SDS011;7152;48.348;10.980;2022-09-17T05:33:51;3.00;;;2.30;;
14143;SDS011;7152;48.348;10.980;2022-09-17T05:36:16;3.83;;;2.23;;
14143;SDS011;7152;48.348;10.980;2022-09-17T05:38:42;4.53;;;2.10;;
14143;SDS011;7152;48.348;10.980;2022-09-17T05:41:07;3.63;;;2.03;;
14143;SDS011;7152;48.348;10.980;2022-09-17T05:43:33;3.73;;;2.13;;
14143;SDS011;7152;48.348;10.980;2022-09-17T05:46:00;4.47;;;2.30;;
14143;SDS011;7152;48.348;10.980;2022-09-17T05:48:29;5.53;;;2.00;;
14143;SDS011;7152;48.348;10.980;2022-09-17T05:50:55;4.33;;;1.83;;
14143;SDS011;7152;48.348;10.980;2022-09-17T05:53:21;2.57;;;1.73;;
14143;SDS011;7152;48.348;10.980;2022-09-17T05:55:46;6.17;;;2.20;;
14143;SDS011;7152;48.348;10.980;2022-09-17T05:58:13;2.27;;;1.70;;
14143;SDS011;7152;48.348;10.980;2022-09-17T06:00:40;4.07;;;1.73;;
14143;SDS011;7152;48.348;10.980;2022-09-17T06:03:07;4.30;;;2.30;;
14143;SDS011;7152;48.348;10.980;2022-09-17T06:05:36;5.77;;;1.97;;
14143;SDS011;7152;48.348;10.980;2022-09-17T06:08:01;5.73;;;1.77;;
14143;SDS011;7152;48.348;10.980;2022-09-17T06:10:27;7.33;;;2.37;;
14143;SDS011;7152;48.348;10.980;2022-09-17T06:12:56;5.20;;;2.20;;
14143;SDS011;7152;48.348;10.980;2022-09-17T06:15:22;4.27;;;2.40;;
14143;SDS011;7152;48.348;10.980;2022-09-17T06:17:49;4.73;;;1.90;;
14143;SDS011;7152;48.348;10.980;2022-09-17T06:20:14;3.77;;;2.03;;
14143;SDS011;7152;48.348;10.980;2022-09-17T06:22:40;4.47;;;2.00;;
14143;SDS011;7152;48.348;10.980;2022-09-17T06:25:06;4.13;;;1.80;;
14143;SDS011;7152;48.348;10.980;2022-09-17T06:27:33;5.03;;;1.97;;
14143;SDS011;7152;48.348;10.980;2022-09-17T06:29:59;5.40;;;1.83;;
14143;SDS011;7152;48.348;10.980;2022-09-17T06:32:26;4.43;;;2.00;;
14143;SDS011;7152;48.348;10.980;2022-09-17T06:34:52;3.47;;;1.53;;
14143;SDS011;7152;48.348;10.980;2022-09-17T06:37:19;3.40;;;1.87;;
14143;SDS011;7152;48.348;10.980;2022-09-17T06:39:51;4.60;;;1.80;;
14143;SDS011;7152;48.348;10.980;2022-09-17T06:42:16;3.10;;;1.90;;
14143;SDS011;7152;48.348;10.980;2022-09-17T06:44:42;5.60;;;1.87;;
14143;SDS011;7152;48.348;10.980;2022-09-17T06:47:08;3.00;;;1.90;;
14143;SDS011;7152;48.348;10.980;2022-09-17T06:49:33;4.87;;;1.93;;
14143;SDS011;7152;48.348;10.980;2022-09-17T06:51:59;4.97;;;1.93;;
14143;SDS011;7152;48.348;10.980;2022-09-17T06:54:24;6.43;;;2.10;;
14143;SDS011;7152;48.348;10.980;2022-09-17T06:56:50;3.70;;;1.63;;
14143;SDS011;7152;48.348;10.980;2022-09-17T06:59:16;4.07;;;1.53;;
14143;SDS011;7152;48.348;10.980;2022-09-17T07:01:42;4.63;;;1.97;;
14143;SDS011;7152;48.348;10.980;2022-09-17T07:04:08;7.67;;;1.90;;
14143;SDS011;7152;48.348;10.980;2022-09-17T07:06:34;5.63;;;1.73;;
14143;SDS011;7152;48.348;10.980;2022-09-17T07:08:59;2.97;;;1.57;;
14143;SDS011;7152;48.348;10.980;2022-09-17T07:11:25;6.20;;;1.43;;
14143;SDS011;7152;48.348;10.980;2022-09-17T07:13:53;5.13;;;1.67;;
14143;SDS011;7152;48.348;10.980;2022-09-17T07:16:19;4.63;;;1.70;;
14143;SDS011;7152;48.348;10.980;2022-09-17T07:18:45;4.63;;;1.83;;
14143;SDS011;7152;48.348;10.980;2022-09-17T07:21:11;4.87;;;1.50;;
14143;SDS011;7152;48.348;10.980;2022-09-17T07:23:36;4.90;;;1.90;;
14143;SDS011;7152;48.348;10.980;2022-09-17T07:26:03;6.53;;;2.10;;
14143;SDS011;7152;48.348;10.980;2022-09-17T07:28:37;8.33;;;2.00;;
14143;SDS011;7152;48.348;10.980;2022-09-17T07:31:04;4.67;;;2.50;;
14143;SDS011;7152;48.348;10.980;2022-09-17T07:33:30;4.50;;;1.60;;
14143;SDS011;7152;48.348;10.980;2022-09-17T07:35:59;4.70;;;1.40;;
14143;SDS011;7152;48.348;10.980;2022-09-17T07:38:26;7.70;;;2.10;;
14143;SDS011;7152;48.348;10.980;2022-09-17T07:43:26;7.80;;;1.90;;
14143;SDS011;7152;48.348;10.980;2022-09-17T07:45:55;9.47;;;1.80;;
14143;SDS011;7152;48.348;10.980;2022-09-17T07:48:22;6.17;;;2.10;;
14143;SDS011;7152;48.348;10.980;2022-09-17T07:50:48;4.93;;;1.70;;
14143;SDS011;7152;48.348;10.980;2022-09-17T07:53:14;9.83;;;2.00;;
14143;SDS011;7152;48.348;10.980;2022-09-17T07:55:40;8.13;;;2.30;;
14143;SDS011;7152;48.348;10.980;2022-09-17T07:58:06;5.13;;;1.83;;
14143;SDS011;7152;48.348;10.980;2022-09-17T08:00:32;4.53;;;1.60;;
14143;SDS011;7152;48.348;10.980;2022-09-17T08:02:58;4.73;;;1.57;;
14143;SDS011;7152;48.348;10.980;2022-09-17T08:05:24;3.60;;;1.47;;
14143;SDS011;7152;48.348;10.980;2022-09-17T08:07:51;2.73;;;1.60;;
14143;SDS011;7152;48.348;10.980;2022-09-17T08:10:19;4.83;;;1.40;;
14143;SDS011;7152;48.348;10.980;2022-09-17T08:12:50;4.73;;;2.00;;
14143;SDS011;7152;48.348;10.980;2022-09-17T08:15:19;5.70;;;1.60;;
14143;SDS011;7152;48.348;10.980;2022-09-17T08:17:45;7.67;;;1.70;;
14143;SDS011;7152;48.348;10.980;2022-09-17T08:20:12;5.07;;;2.00;;
14143;SDS011;7152;48.348;10.980;2022-09-17T08:22:38;4.50;;;1.80;;
14143;SDS011;7152;48.348;10.980;2022-09-17T08:25:05;4.57;;;2.07;;
14143;SDS011;7152;48.348;10.980;2022-09-17T08:27:31;4.20;;;1.60;;
14143;SDS011;7152;48.348;10.980;2022-09-17T08:29:58;6.33;;;1.77;;
14143;SDS011;7152;48.348;10.980;2022-09-17T08:32:24;4.90;;;1.80;;
14143;SDS011;7152;48.348;10.980;2022-09-17T08:34:49;6.13;;;2.00;;
14143;SDS011;7152;48.348;10.980;2022-09-17T08:37:18;3.90;;;1.70;;
14143;SDS011;7152;48.348;10.980;2022-09-17T08:39:44;4.00;;;1.73;;
14143;SDS011;7152;48.348;10.980;2022-09-17T08:45:01;4.53;;;1.37;;
14143;SDS011;7152;48.348;10.980;2022-09-17T08:47:37;6.23;;;1.87;;
14143;SDS011;7152;48.348;10.980;2022-09-17T08:50:12;4.23;;;1.40;;
14143;SDS011;7152;48.348;10.980;2022-09-17T08:58:16;7.93;;;1.80;;
14143;SDS011;7152;48.348;10.980;2022-09-17T09:06:21;3.30;;;1.27;;
14143;SDS011;7152;48.348;10.980;2022-09-17T09:08:55;5.53;;;1.57;;
14143;SDS011;7152;48.348;10.980;2022-09-17T09:11:29;5.30;;;1.30;;
14143;SDS011;7152;48.348;10.980;2022-09-17T09:16:45;3.67;;;1.47;;
14143;SDS011;7152;48.348;10.980;2022-09-17T09:19:29;3.30;;;1.30;;
14143;SDS011;7152;48.348;10.980;2022-09-17T09:24:30;4.63;;;1.43;;
14143;SDS011;7152;48.348;10.980;2022-09-17T09:27:16;2.37;;;1.30;;
14143;SDS011;7152;48.348;10.980;2022-09-17T09:37:54;7.17;;;1.57;;
14143;SDS011;7152;48.348;10.980;2022-09-17T09:42:50;5.43;;;1.63;;
14143;SDS011;7152;48.348;10.980;2022-09-17T09:45:42;2.87;;;1.20;;
14143;SDS011;7152;48.348;10.980;2022-09-17T09:51:13;6.07;;;1.57;;
14143;SDS011;7152;48.348;10.980;2022-09-17T09:57:00;5.43;;;2.10;;
14143;SDS011;7152;48.348;10.980;2022-09-17T09:59:10;4.00;;;1.93;;
14143;SDS011;7152;48.348;10.980;2022-09-17T10:01:40;2.70;;;1.50;;
14143;SDS011;7152;48.348;10.980;2022-09-17T10:04:18;4.73;;;2.30;;
14143;SDS011;7152;48.348;10.980;2022-09-17T10:06:48;6.30;;;2.23;;
14143;SDS011;7152;48.348;10.980;2022-09-17T10:09:16;4.10;;;2.07;;
14143;SDS011;7152;48.348;10.980;2022-09-17T10:14:33;6.13;;;1.97;;
14143;SDS011;7152;48.348;10.980;2022-09-17T10:17:10;5.30;;;1.90;;
14143;SDS011;7152;48.348;10.980;2022-09-17T10:19:39;5.13;;;1.43;;
14143;SDS011;7152;48.348;10.980;2022-09-17T10:24:51;4.20;;;1.30;;
14143;SDS011;7152;48.348;10.980;2022-09-17T10:27:19;4.60;;;1.30;;
14143;SDS011;7152;48.348;10.980;2022-09-17T10:29:47;1.13;;;1.03;;
14143;SDS011;7152;48.348;10.980;2022-09-17T10:32:15;1.63;;;1.00;;
14143;SDS011;7152;48.348;10.980;2022-09-17T10:35:28;3.23;;;1.10;;
14143;SDS011;7152;48.348;10.980;2022-09-17T10:37:41;1.53;;;1.10;;
14143;SDS011;7152;48.348;10.980;2022-09-17T10:43:28;2.50;;;0.97;;
14143;SDS011;7152;48.348;10.980;2022-09-17T10:45:34;4.13;;;1.23;;
14143;SDS011;7152;48.348;10.980;2022-09-17T10:48:03;1.20;;;0.97;;
14143;SDS011;7152;48.348;10.980;2022-09-17T10:50:29;2.87;;;1.07;;
14143;SDS011;7152;48.348;10.980;2022-09-17T10:52:58;1.60;;;1.10;;
14143;SDS011;7152;48.348;10.980;2022-09-17T11:03:34;1.57;;;1.07;;
14143;SDS011;7152;48.348;10.980;2022-09-17T11:06:23;2.03;;;1.20;;
14143;SDS011;7152;48.348;10.980;2022-09-17T11:15:19;2.57;;;0.97;;
14143;SDS011;7152;48.348;10.980;2022-09-17T11:23:26;3.27;;;1.10;;
14143;SDS011;7152;48.348;10.980;2022-09-17T11:29:11;3.13;;;1.10;;
14143;SDS011;7152;48.348;10.980;2022-09-17T11:34:28;2.97;;;1.10;;
14143;SDS011;7152;48.348;10.980;2022-09-17T11:37:11;2.77;;;1.30;;
14143;SDS011;7152;48.348;10.980;2022-09-17T11:39:54;2.33;;;1.30;;
14143;SDS011;7152;48.348;10.980;2022-09-17T11:42:29;2.27;;;1.00;;
14143;SDS011;7152;48.348;10.980;2022-09-17T11:45:14;2.80;;;1.10;;
14143;SDS011;7152;48.348;10.980;2022-09-17T11:48:00;2.93;;;1.20;;
14143;SDS011;7152;48.348;10.980;2022-09-17T11:50:32;2.57;;;1.13;;
14143;SDS011;7152;48.348;10.980;2022-09-17T11:56:08;3.47;;;1.60;;
14143;SDS011;7152;48.348;10.980;2022-09-17T12:01:23;1.23;;;0.80;;
14143;SDS011;7152;48.348;10.980;2022-09-17T12:04:33;1.83;;;0.90;;
14143;SDS011;7152;48.348;10.980;2022-09-17T12:09:43;2.97;;;1.10;;
14143;SDS011;7152;48.348;10.980;2022-09-17T12:12:17;1.10;;;0.90;;
14143;SDS011;7152;48.348;10.980;2022-09-17T12:14:55;3.93;;;1.00;;
14143;SDS011;7152;48.348;10.980;2022-09-17T12:17:38;2.47;;;0.90;;
14143;SDS011;7152;48.348;10.980;2022-09-17T12:20:19;2.13;;;1.30;;
14143;SDS011;7152;48.348;10.980;2022-09-17T12:22:54;2.70;;;1.27;;
14143;SDS011;7152;48.348;10.980;2022-09-17T12:25:24;2.27;;;0.90;;
14143;SDS011;7152;48.348;10.980;2022-09-17T12:30:24;4.63;;;0.90;;
14143;SDS011;7152;48.348;10.980;2022-09-17T12:32:58;2.10;;;0.67;;
14143;SDS011;7152;48.348;10.980;2022-09-17T12:38:03;1.93;;;0.70;;
14143;SDS011;7152;48.348;10.980;2022-09-17T12:43:50;3.27;;;0.80;;
14143;SDS011;7152;48.348;10.980;2022-09-17T12:59:40;0.37;;;0.37;;
14143;SDS011;7152;48.348;10.980;2022-09-17T13:02:38;0.60;;;0.40;;
14143;SDS011;7152;48.348;10.980;2022-09-17T13:23:39;1.83;;;0.67;;
14143;SDS011;7152;48.348;10.980;2022-09-17T13:26:08;1.57;;;0.60;;
14143;SDS011;7152;48.348;10.980;2022-09-17T13:28:44;1.00;;;0.63;;
14143;SDS011;7152;48.348;10.980;2022-09-17T13:31:12;1.83;;;0.90;;
14143;SDS011;7152;48.348;10.980;2022-09-17T13:37:18;1.03;;;0.87;;
14143;SDS011;7152;48.348;10.980;2022-09-17T13:55:44;1.97;;;0.90;;
14143;SDS011;7152;48.348;10.980;2022-09-17T14:13:57;1.90;;;0.90;;
14143;SDS011;7152;48.348;10.980;2022-09-17T14:17:01;2.00;;;1.20;;
14143;SDS011;7152;48.348;10.980;2022-09-17T14:19:34;1.00;;;0.50;;
14143;SDS011;7152;48.348;10.980;2022-09-17T14:22:14;2.23;;;0.83;;
14143;SDS011;7152;48.348;10.980;2022-09-17T14:24:52;2.07;;;0.70;;
14143;SDS011;7152;48.348;10.980;2022-09-17T14:30:29;1.60;;;1.00;;
14143;SDS011;7152;48.348;10.980;2022-09-17T14:38:06;1.43;;;0.70;;
14143;SDS011;7152;48.348;10.980;2022-09-17T14:46:25;0.87;;;0.70;;
14143;SDS011;7152;48.348;10.980;2022-09-17T14:49:14;1.23;;;0.70;;
14143;SDS011;7152;48.348;10.980;2022-09-17T14:51:48;0.70;;;0.70;;
14143;SDS011;7152;48.348;10.980;2022-09-17T14:54:22;0.83;;;0.70;;
14143;SDS011;7152;48.348;10.980;2022-09-17T14:56:50;1.23;;;0.60;;
14143;SDS011;7152;48.348;10.980;2022-09-17T15:04:52;1.20;;;0.80;;
14143;SDS011;7152;48.348;10.980;2022-09-17T15:07:19;1.83;;;0.90;;
14143;SDS011;7152;48.348;10.980;2022-09-17T15:09:46;1.23;;;1.10;;
14143;SDS011;7152;48.348;10.980;2022-09-17T15:12:13;3.23;;;1.00;;
14143;SDS011;7152;48.348;10.980;2022-09-17T15:14:45;1.67;;;0.80;;
14143;SDS011;7152;48.348;10.980;2022-09-17T15:17:12;0.70;;;0.70;;
14143;SDS011;7152;48.348;10.980;2022-09-17T15:19:42;1.77;;;0.80;;
14143;SDS011;7152;48.348;10.980;2022-09-17T15:22:16;2.53;;;0.90;;
14143;SDS011;7152;48.348;10.980;2022-09-17T15:27:38;2.13;;;0.97;;
14143;SDS011;7152;48.348;10.980;2022-09-17T15:30:16;2.37;;;1.27;;
14143;SDS011;7152;48.348;10.980;2022-09-17T15:32:47;1.47;;;0.80;;
14143;SDS011;7152;48.348;10.980;2022-09-17T15:35:20;1.13;;;1.03;;
14143;SDS011;7152;48.348;10.980;2022-09-17T15:37:52;1.83;;;0.90;;
14143;SDS011;7152;48.348;10.980;2022-09-17T15:40:24;1.90;;;1.20;;
14143;SDS011;7152;48.348;10.980;2022-09-17T15:43:11;1.53;;;1.30;;
14143;SDS011;7152;48.348;10.980;2022-09-17T15:46:13;1.13;;;1.03;;
14143;SDS011;7152;48.348;10.980;2022-09-17T15:49:25;3.13;;;0.97;;
14143;SDS011;7152;48.348;10.980;2022-09-17T15:51:53;2.70;;;0.93;;
14143;SDS011;7152;48.348;10.980;2022-09-17T15:54:27;3.07;;;1.20;;
14143;SDS011;7152;48.348;10.980;2022-09-17T15:56:55;1.00;;;0.77;;
14143;SDS011;7152;48.348;10.980;2022-09-17T16:01:55;1.87;;;1.00;;
14143;SDS011;7152;48.348;10.980;2022-09-17T16:04:30;1.30;;;0.70;;
14143;SDS011;7152;48.348;10.980;2022-09-17T16:09:44;2.53;;;0.93;;
14143;SDS011;7152;48.348;10.980;2022-09-17T16:12:12;2.13;;;1.20;;
14143;SDS011;7152;48.348;10.980;2022-09-17T16:14:44;1.07;;;0.90;;
14143;SDS011;7152;48.348;10.980;2022-09-17T16:17:45;1.70;;;0.90;;
14143;SDS011;7152;48.348;10.980;2022-09-17T16:22:39;2.67;;;0.87;;
14143;SDS011;7152;48.348;10.980;2022-09-17T16:25:05;2.20;;;1.10;;
14143;SDS011;7152;48.348;10.980;2022-09-17T16:27:34;2.07;;;0.80;;
14143;SDS011;7152;48.348;10.980;2022-09-17T16:30:07;0.80;;;0.80;;
14143;SDS011;7152;48.348;10.980;2022-09-17T16:32:38;1.03;;;0.80;;
14143;SDS011;7152;48.348;10.980;2022-09-17T16:35:03;1.43;;;0.80;;
14143;SDS011;7152;48.348;10.980;2022-09-17T16:37:30;0.80;;;0.80;;
14143;SDS011;7152;48.348;10.980;2022-09-17T16:39:55;2.57;;;0.90;;
14143;SDS011;7152;48.348;10.980;2022-09-17T16:42:21;1.27;;;0.87;;
14143;SDS011;7152;48.348;10.980;2022-09-17T16:44:47;2.60;;;1.33;;
14143;SDS011;7152;48.348;10.980;2022-09-17T16:47:12;1.80;;;0.93;;
14143;SDS011;7152;48.348;10.980;2022-09-17T16:49:38;1.23;;;1.13;;
14143;SDS011;7152;48.348;10.980;2022-09-17T16:52:03;1.70;;;1.27;;
14143;SDS011;7152;48.348;10.980;2022-09-17T16:54:29;1.03;;;0.90;;
14143;SDS011;7152;48.348;10.980;2022-09-17T16:56:55;1.90;;;1.07;;
14143;SDS011;7152;48.348;10.980;2022-09-17T16:59:20;1.00;;;0.90;;
14143;SDS011;7152;48.348;10.980;2022-09-17T17:01:46;1.20;;;1.10;;
14143;SDS011;7152;48.348;10.980;2022-09-17T17:04:14;1.37;;;0.80;;
14143;SDS011;7152;48.348;10.980;2022-09-17T17:06:40;2.00;;;0.93;;
14143;SDS011;7152;48.348;10.980;2022-09-17T17:09:06;2.43;;;1.30;;
14143;SDS011;7152;48.348;10.980;2022-09-17T17:11:31;1.30;;;0.93;;
14143;SDS011;7152;48.348;10.980;2022-09-17T17:13:57;1.13;;;0.90;;
14143;SDS011;7152;48.348;10.980;2022-09-17T17:16:25;1.63;;;1.00;;
14143;SDS011;7152;48.348;10.980;2022-09-17T17:18:50;1.27;;;0.93;;
14143;SDS011;7152;48.348;10.980;2022-09-17T17:21:17;1.37;;;1.00;;
14143;SDS011;7152;48.348;10.980;2022-09-17T17:23:43;1.00;;;1.00;;
14143;SDS011;7152;48.348;10.980;2022-09-17T17:26:11;1.27;;;1.17;;
14143;SDS011;7152;48.348;10.980;2022-09-17T17:28:36;2.83;;;1.17;;
14143;SDS011;7152;48.348;10.980;2022-09-17T17:31:02;1.73;;;1.20;;
14143;SDS011;7152;48.348;10.980;2022-09-17T17:33:29;1.30;;;1.20;;
14143;SDS011;7152;48.348;10.980;2022-09-17T17:35:54;1.90;;;1.67;;
14143;SDS011;7152;48.348;10.980;2022-09-17T17:38:27;3.00;;;1.57;;
14143;SDS011;7152;48.348;10.980;2022-09-17T17:41:04;1.63;;;1.13;;
14143;SDS011;7152;48.348;10.980;2022-09-17T17:43:33;1.40;;;1.30;;
14143;SDS011;7152;48.348;10.980;2022-09-17T17:45:59;1.87;;;1.50;;
14143;SDS011;7152;48.348;10.980;2022-09-17T17:48:26;1.57;;;1.33;;
14143;SDS011;7152;48.348;10.980;2022-09-17T17:50:52;1.73;;;1.50;;
14143;SDS011;7152;48.348;10.980;2022-09-17T17:53:17;3.60;;;1.47;;
14143;SDS011;7152;48.348;10.980;2022-09-17T17:55:53;2.03;;;1.40;;
14143;SDS011;7152;48.348;10.980;2022-09-17T17:58:22;2.00;;;1.50;;
14143;SDS011;7152;48.348;10.980;2022-09-17T18:00:48;2.00;;;1.57;;
14143;SDS011;7152;48.348;10.980;2022-09-17T18:03:14;2.30;;;1.40;;
14143;SDS011;7152;48.348;10.980;2022-09-17T18:05:39;2.23;;;1.70;;
14143;SDS011;7152;48.348;10.980;2022-09-17T18:08:05;2.53;;;1.53;;
14143;SDS011;7152;48.348;10.980;2022-09-17T18:10:30;2.73;;;2.10;;
14143;SDS011;7152;48.348;10.980;2022-09-17T18:12:56;2.70;;;1.53;;
14143;SDS011;7152;48.348;10.980;2022-09-17T18:15:21;2.80;;;1.70;;
14143;SDS011;7152;48.348;10.980;2022-09-17T18:17:47;2.63;;;1.50;;
14143;SDS011;7152;48.348;10.980;2022-09-17T18:20:15;4.50;;;1.80;;
14143;SDS011;7152;48.348;10.980;2022-09-17T18:22:42;1.70;;;1.60;;
14143;SDS011;7152;48.348;10.980;2022-09-17T18:25:08;3.87;;;1.53;;
14143;SDS011;7152;48.348;10.980;2022-09-17T18:27:33;4.17;;;1.90;;
14143;SDS011;7152;48.348;10.980;2022-09-17T18:29:59;1.83;;;1.70;;
14143;SDS011;7152;48.348;10.980;2022-09-17T18:32:25;2.23;;;1.97;;
14143;SDS011;7152;48.348;10.980;2022-09-17T18:34:50;2.80;;;1.90;;
14143;SDS011;7152;48.348;10.980;2022-09-17T18:37:16;2.23;;;1.77;;
14143;SDS011;7152;48.348;10.980;2022-09-17T18:39:41;2.10;;;2.00;;
14143;SDS011;7152;48.348;10.980;2022-09-17T18:42:07;3.33;;;2.07;;
14143;SDS011;7152;48.348;10.980;2022-09-17T18:44:33;3.93;;;2.33;;
14143;SDS011;7152;48.348;10.980;2022-09-17T18:46:59;2.83;;;2.33;;
14143;SDS011;7152;48.348;10.980;2022-09-17T18:49:24;2.00;;;1.90;;